Lee-on-the-Solent, United Kingdom
Current Conditions -  °F | °C
As of 6:50 AM on Monday 24 Nov 2014 (Local Time) from EGHI Reporting Station
Light Fog Light Fog  
Wind Chill: 30°   Ceiling: Unl
Heat Index: 30°   Visibility: 4mi
Dew Point: 28°   Wind: 0mph
Humidity: 93%   Direction: NA
Pressure: 30.3"   Gusts: NA
Location:  50.8°N, 1.2°W
Report Text: EGHI 240650Z 00000KT 7000 PRFG NSC M01/M02 Q1026
Loading
Personal Weather Stations






























Interactive Weather Map New forecast layout! Learn more

10-Day Weather Forecast

Advertisements
Track Severe Weather on mobile